createdAt,value
2022-11-29T00:02:20.915Z,5.82
2022-11-29T00:04:48.707Z,6.50
2022-11-29T00:07:16.553Z,5.78
2022-11-29T00:09:45.723Z,5.28
2022-11-29T00:12:13.514Z,5.60
2022-11-29T00:14:41.636Z,4.82
2022-11-29T00:17:09.705Z,4.15
2022-11-29T00:19:38.155Z,4.10
2022-11-29T00:22:06.217Z,3.65
2022-11-29T00:24:34.594Z,5.32
2022-11-29T00:27:03.983Z,5.60
2022-11-29T00:29:31.859Z,7.93
2022-11-29T00:31:59.980Z,7.13
2022-11-29T00:34:27.759Z,3.95
2022-11-29T00:36:55.445Z,3.97
2022-11-29T00:39:23.276Z,2.88
2022-11-29T00:41:51.064Z,3.88
2022-11-29T00:44:20.821Z,3.63
2022-11-29T00:46:49.762Z,3.55
2022-11-29T00:49:17.940Z,2.88
2022-11-29T00:51:45.823Z,2.58
2022-11-29T00:54:13.632Z,2.08
2022-11-29T00:56:41.424Z,2.75
2022-11-29T00:59:09.168Z,2.85
2022-11-29T01:01:38.267Z,2.75
2022-11-29T01:04:06.276Z,1.48
2022-11-29T01:06:34.118Z,2.38
2022-11-29T01:09:01.874Z,3.05
2022-11-29T01:11:30.123Z,2.28
2022-11-29T01:14:00.516Z,2.15
2022-11-29T01:16:29.992Z,1.50
2022-11-29T01:18:59.177Z,2.38
2022-11-29T01:21:27.194Z,2.20
2022-11-29T01:23:55.804Z,2.35
2022-11-29T01:26:26.352Z,1.90
2022-11-29T01:28:56.168Z,1.35
2022-11-29T01:31:26.185Z,2.47
2022-11-29T01:33:55.102Z,2.67
2022-11-29T01:36:24.872Z,1.85
2022-11-29T01:38:52.959Z,2.45
2022-11-29T01:41:22.855Z,1.77
2022-11-29T01:43:56.362Z,2.03
2022-11-29T01:48:55.686Z,2.28
2022-11-29T01:51:25.999Z,1.85
2022-11-29T01:53:54.693Z,1.38
2022-11-29T01:56:22.907Z,1.60
2022-11-29T01:58:50.740Z,2.03
2022-11-29T02:01:18.732Z,1.70
2022-11-29T02:03:46.528Z,1.50
2022-11-29T02:06:15.171Z,1.20
2022-11-29T02:08:44.790Z,1.48
2022-11-29T02:11:57.487Z,1.55
2022-11-29T02:14:37.867Z,1.27
2022-11-29T02:17:20.373Z,2.25
2022-11-29T02:20:10.188Z,1.13
2022-11-29T02:22:43.417Z,1.23
2022-11-29T02:25:32.401Z,2.38
2022-11-29T02:28:39.050Z,1.55
2022-11-29T02:31:34.307Z,1.90
2022-11-29T02:34:21.812Z,1.42
2022-11-29T02:37:11.267Z,1.13
2022-11-29T02:40:01.821Z,1.75
2022-11-29T02:43:05.374Z,1.73
2022-11-29T02:45:45.215Z,2.15
2022-11-29T02:48:28.927Z,2.47
2022-11-29T02:51:02.656Z,3.35
2022-11-29T02:53:37.237Z,1.90
2022-11-29T02:56:14.672Z,1.92
2022-11-29T02:58:51.009Z,1.33
2022-11-29T03:01:25.985Z,2.05
2022-11-29T03:04:02.348Z,1.40
2022-11-29T03:06:39.716Z,1.77
2022-11-29T03:09:15.263Z,3.95
2022-11-29T03:11:49.557Z,1.40
2022-11-29T03:14:25.227Z,2.10
2022-11-29T03:17:02.968Z,2.03
2022-11-29T03:19:41.201Z,1.95
2022-11-29T03:22:18.429Z,2.38
2022-11-29T03:24:53.308Z,1.85
2022-11-29T03:27:28.340Z,1.55
2022-11-29T03:30:00.636Z,1.52
2022-11-29T03:32:34.644Z,1.58
2022-11-29T03:35:07.919Z,2.53
2022-11-29T03:37:46.627Z,1.98
2022-11-29T03:40:18.955Z,1.75
2022-11-29T03:42:54.158Z,1.13
2022-11-29T03:45:26.769Z,2.08
2022-11-29T03:48:00.721Z,1.13
2022-11-29T03:50:34.408Z,2.42
2022-11-29T03:53:09.089Z,1.10
2022-11-29T03:55:50.491Z,1.30
2022-11-29T03:58:47.476Z,1.27
2022-11-29T04:01:44.692Z,1.75
2022-11-29T04:04:47.745Z,1.90
2022-11-29T04:07:35.023Z,2.03
2022-11-29T04:10:18.528Z,1.40
2022-11-29T04:13:18.943Z,1.65
2022-11-29T04:16:11.749Z,2.13
2022-11-29T04:19:26.738Z,1.83
2022-11-29T04:22:18.067Z,1.48
2022-11-29T04:25:19.207Z,1.50
2022-11-29T04:28:11.778Z,1.40
2022-11-29T04:30:49.171Z,1.85
2022-11-29T04:33:49.292Z,2.03
2022-11-29T04:36:49.959Z,1.30
2022-11-29T04:39:32.290Z,1.70
2022-11-29T04:42:25.258Z,1.60
2022-11-29T04:45:11.777Z,1.67
2022-11-29T04:47:56.557Z,1.63
2022-11-29T04:50:40.005Z,2.13
2022-11-29T04:53:28.969Z,1.67
2022-11-29T04:56:07.364Z,1.65
2022-11-29T04:58:42.077Z,2.08
2022-11-29T05:01:19.812Z,1.08
2022-11-29T05:03:57.212Z,1.05
2022-11-29T05:06:33.730Z,1.40
2022-11-29T05:09:12.037Z,1.98
2022-11-29T05:11:56.451Z,1.52
2022-11-29T05:14:37.048Z,1.58
2022-11-29T05:17:32.624Z,1.52
2022-11-29T05:20:09.361Z,2.33
2022-11-29T05:22:43.633Z,0.70
2022-11-29T05:25:41.141Z,1.38
2022-11-29T05:28:17.243Z,2.00
2022-11-29T05:31:19.979Z,1.83
2022-11-29T05:34:06.772Z,2.03
2022-11-29T05:36:42.029Z,1.60
2022-11-29T05:39:36.205Z,1.48
2022-11-29T05:42:18.989Z,1.90
2022-11-29T05:44:52.056Z,1.75
2022-11-29T05:47:31.049Z,2.03
2022-11-29T05:50:06.884Z,1.70
2022-11-29T05:52:46.072Z,1.45
2022-11-29T05:55:26.188Z,1.65
2022-11-29T05:57:59.588Z,1.40
2022-11-29T06:00:30.528Z,1.63
2022-11-29T06:03:04.706Z,4.57
2022-11-29T06:05:39.523Z,3.53
2022-11-29T06:08:14.073Z,1.90
2022-11-29T06:10:57.084Z,1.70
2022-11-29T06:13:37.971Z,1.90
2022-11-29T06:16:27.960Z,2.60
2022-11-29T06:19:30.442Z,1.35
2022-11-29T06:22:13.368Z,1.52
2022-11-29T06:25:03.395Z,2.13
2022-11-29T06:27:52.876Z,1.90
2022-11-29T06:30:23.791Z,1.63
2022-11-29T06:33:01.248Z,1.00
2022-11-29T06:35:40.791Z,1.67
2022-11-29T06:38:18.882Z,1.75
2022-11-29T06:40:47.157Z,2.20
2022-11-29T06:43:15.747Z,2.38
2022-11-29T06:45:50.043Z,1.23
2022-11-29T06:48:24.142Z,2.50
2022-11-29T06:50:59.296Z,1.70
2022-11-29T06:53:40.312Z,1.73
2022-11-29T06:56:20.573Z,1.70
2022-11-29T06:58:58.401Z,1.63
2022-11-29T07:01:37.252Z,2.17
2022-11-29T07:04:21.176Z,1.38
2022-11-29T07:09:20.785Z,2.67
2022-11-29T07:11:49.433Z,2.08
2022-11-29T07:14:17.807Z,2.17
2022-11-29T07:16:57.175Z,2.15
2022-11-29T07:19:35.892Z,2.28
2022-11-29T07:22:10.664Z,2.22
2022-11-29T07:24:56.172Z,2.63
2022-11-29T07:27:32.140Z,2.08
2022-11-29T07:30:11.089Z,1.98
2022-11-29T07:32:52.871Z,2.35
2022-11-29T07:35:33.736Z,3.25
2022-11-29T07:38:13.151Z,3.05
2022-11-29T07:40:48.916Z,3.08
2022-11-29T07:43:36.561Z,2.65
2022-11-29T07:46:04.672Z,2.50
2022-11-29T07:48:32.447Z,2.92
2022-11-29T07:51:01.482Z,3.65
2022-11-29T07:53:30.299Z,5.00
2022-11-29T07:55:59.720Z,3.67
2022-11-29T07:58:27.416Z,3.03
2022-11-29T08:00:55.220Z,3.58
2022-11-29T08:03:23.032Z,1.95
2022-11-29T08:05:50.739Z,3.80
2022-11-29T08:08:18.565Z,1.88
2022-11-29T08:10:46.364Z,3.40
2022-11-29T08:13:15.791Z,2.60
2022-11-29T08:15:47.656Z,3.35
2022-11-29T08:18:15.455Z,2.63
2022-11-29T08:20:44.269Z,3.35
2022-11-29T08:23:14.057Z,3.75
2022-11-29T08:25:42.144Z,2.67
2022-11-29T08:28:10.433Z,2.00
2022-11-29T08:30:39.614Z,2.33
2022-11-29T08:33:07.509Z,1.90
2022-11-29T08:35:36.076Z,2.13
2022-11-29T08:38:04.937Z,1.67
2022-11-29T08:40:32.772Z,1.52
2022-11-29T08:43:00.641Z,2.10
2022-11-29T08:45:28.374Z,2.42
2022-11-29T08:47:57.516Z,2.00
2022-11-29T08:50:25.646Z,1.75
2022-11-29T08:53:10.746Z,2.22
2022-11-29T08:55:43.238Z,1.90
2022-11-29T08:58:13.899Z,3.30
2022-11-29T09:00:44.014Z,2.25
2022-11-29T09:03:27.262Z,2.45
2022-11-29T09:05:55.301Z,2.38
2022-11-29T09:08:23.157Z,2.88
2022-11-29T09:10:50.866Z,2.70
2022-11-29T09:13:19.047Z,2.15
2022-11-29T09:15:46.729Z,2.03
2022-11-29T09:18:15.805Z,2.25
2022-11-29T09:20:44.689Z,2.33
2022-11-29T09:23:13.054Z,2.22
2022-11-29T09:25:40.747Z,1.80
2022-11-29T09:28:08.553Z,2.42
2022-11-29T09:30:38.064Z,4.05
2022-11-29T09:33:05.994Z,2.08
2022-11-29T09:35:35.207Z,2.63
2022-11-29T09:38:03.081Z,2.72
2022-11-29T09:40:38.386Z,2.53
2022-11-29T09:43:18.808Z,2.40
2022-11-29T09:45:50.804Z,2.10
2022-11-29T09:48:36.799Z,2.35
2022-11-29T09:51:17.996Z,1.80
2022-11-29T09:54:01.833Z,3.33
2022-11-29T09:56:36.654Z,2.17
2022-11-29T09:59:10.019Z,2.55
2022-11-29T10:01:42.376Z,2.83
2022-11-29T10:04:15.133Z,2.17
2022-11-29T10:06:49.640Z,2.88
2022-11-29T10:09:23.910Z,2.92
2022-11-29T10:12:01.427Z,2.10
2022-11-29T10:14:35.294Z,3.08
2022-11-29T10:17:08.234Z,2.65
2022-11-29T10:19:39.205Z,2.40
2022-11-29T10:22:18.901Z,2.03
2022-11-29T10:24:49.980Z,1.90
2022-11-29T10:27:23.056Z,2.78
2022-11-29T10:29:51.558Z,2.53
2022-11-29T10:32:21.318Z,2.75
2022-11-29T10:34:49.441Z,2.20
2022-11-29T10:37:20.373Z,2.72
2022-11-29T10:39:51.885Z,2.85
2022-11-29T10:42:45.438Z,2.70
2022-11-29T10:45:18.885Z,2.38
2022-11-29T10:50:20.120Z,2.45
2022-11-29T10:52:49.219Z,2.10
2022-11-29T10:55:19.012Z,3.17
2022-11-29T10:58:10.216Z,3.35
2022-11-29T11:00:52.010Z,2.55
2022-11-29T11:03:28.310Z,3.13
2022-11-29T11:05:59.492Z,3.28
2022-11-29T11:08:29.654Z,2.35
2022-11-29T11:11:01.784Z,2.45
2022-11-29T11:13:32.649Z,3.10
2022-11-29T11:16:09.792Z,4.00
2022-11-29T11:18:38.492Z,2.35
2022-11-29T11:21:10.344Z,3.20
2022-11-29T11:23:46.527Z,3.03
2022-11-29T11:26:15.973Z,4.10
2022-11-29T11:28:50.005Z,4.32
2022-11-29T11:31:31.291Z,4.38
2022-11-29T11:34:24.959Z,3.10
2022-11-29T11:36:53.477Z,2.78
2022-11-29T11:39:24.270Z,3.80
2022-11-29T11:42:10.590Z,3.05
2022-11-29T11:44:48.670Z,2.72
2022-11-29T11:47:19.367Z,3.00
2022-11-29T11:49:50.191Z,3.25
2022-11-29T11:52:22.091Z,2.60
2022-11-29T11:54:54.425Z,2.53
2022-11-29T11:57:23.676Z,3.15
2022-11-29T11:59:53.599Z,2.20
2022-11-29T12:02:30.011Z,3.33
2022-11-29T12:05:01.672Z,2.55
2022-11-29T12:08:06.335Z,2.35
2022-11-29T12:10:28.035Z,1.77
2022-11-29T12:12:56.851Z,1.67
2022-11-29T12:15:29.502Z,2.10
2022-11-29T12:18:02.617Z,1.95
2022-11-29T12:20:33.803Z,2.38
2022-11-29T12:23:20.483Z,1.98
2022-11-29T12:25:54.597Z,1.85
2022-11-29T12:28:26.304Z,2.00
2022-11-29T12:30:59.942Z,2.63
2022-11-29T12:33:38.621Z,1.70
2022-11-29T12:36:20.570Z,1.67
2022-11-29T12:39:00.837Z,2.47
2022-11-29T12:41:41.065Z,1.45
2022-11-29T12:44:23.096Z,1.50
2022-11-29T12:47:34.133Z,2.17
2022-11-29T12:50:05.330Z,2.67
2022-11-29T12:52:42.097Z,2.20
2022-11-29T12:55:22.099Z,1.95
2022-11-29T12:58:00.733Z,1.65
2022-11-29T13:00:33.930Z,1.40
2022-11-29T13:03:13.994Z,1.60
2022-11-29T13:05:56.970Z,1.67
2022-11-29T13:08:46.984Z,2.08
2022-11-29T13:11:21.037Z,1.42
2022-11-29T13:14:13.772Z,1.77
2022-11-29T13:16:57.181Z,1.52
2022-11-29T13:19:30.347Z,1.27
2022-11-29T13:22:05.763Z,1.60
2022-11-29T13:24:42.713Z,1.83
2022-11-29T13:27:17.227Z,1.98
2022-11-29T13:29:47.368Z,1.42
2022-11-29T13:32:32.511Z,1.75
2022-11-29T13:35:06.890Z,1.55
2022-11-29T13:37:39.936Z,2.28
2022-11-29T13:40:22.791Z,2.22
2022-11-29T13:43:01.156Z,1.50
2022-11-29T13:45:38.543Z,1.95
2022-11-29T13:48:34.592Z,1.50
2022-11-29T13:51:28.438Z,1.63
2022-11-29T13:53:57.439Z,2.38
2022-11-29T13:56:36.830Z,1.15
2022-11-29T13:59:13.730Z,1.25
2022-11-29T14:01:48.609Z,0.90
2022-11-29T14:04:25.963Z,1.77
2022-11-29T14:07:05.389Z,12.68
2022-11-29T14:09:37.528Z,5.72
2022-11-29T14:12:19.086Z,4.32
2022-11-29T14:14:53.426Z,2.40
2022-11-29T14:17:47.600Z,1.48
2022-11-29T14:20:48.658Z,1.95
2022-11-29T14:23:31.400Z,2.33
2022-11-29T14:26:28.646Z,1.30
2022-11-29T14:28:57.001Z,1.55
2022-11-29T14:31:56.466Z,2.17
2022-11-29T14:34:45.928Z,1.33
2022-11-29T14:37:52.459Z,1.65
2022-11-29T14:40:28.610Z,0.85
2022-11-29T14:42:56.436Z,1.10
2022-11-29T14:45:28.244Z,0.60
2022-11-29T14:47:56.808Z,1.10
2022-11-29T14:50:37.601Z,1.35
2022-11-29T14:53:06.878Z,1.02
2022-11-29T14:55:36.811Z,0.65
2022-11-29T14:58:19.279Z,1.15
2022-11-29T15:01:10.883Z,1.38
2022-11-29T15:03:48.848Z,0.90
2022-11-29T15:06:25.760Z,0.85
2022-11-29T15:09:03.809Z,1.10
2022-11-29T15:11:44.289Z,0.90
2022-11-29T15:14:20.941Z,0.80
2022-11-29T15:17:17.362Z,1.00
2022-11-29T15:19:59.344Z,1.17
2022-11-29T15:22:32.628Z,0.80
2022-11-29T15:25:03.340Z,0.90
2022-11-29T15:27:31.233Z,0.80
2022-11-29T15:29:59.877Z,1.65
2022-11-29T15:32:31.058Z,0.80
2022-11-29T15:34:59.828Z,1.30
2022-11-29T15:37:44.545Z,0.80
2022-11-29T15:40:15.997Z,1.10
2022-11-29T15:42:45.872Z,1.55
2022-11-29T15:45:28.795Z,0.77
2022-11-29T15:48:11.308Z,0.88
2022-11-29T15:50:41.856Z,0.60
2022-11-29T15:53:19.272Z,0.75
2022-11-29T15:55:49.848Z,0.70
2022-11-29T15:58:19.074Z,0.70
2022-11-29T16:00:49.864Z,0.82
2022-11-29T16:03:22.635Z,0.90
2022-11-29T16:05:57.034Z,0.60
2022-11-29T16:08:27.628Z,0.90
2022-11-29T16:10:55.776Z,1.00
2022-11-29T16:13:40.613Z,0.60
2022-11-29T16:16:14.323Z,0.77
2022-11-29T16:18:44.856Z,1.52
2022-11-29T16:21:28.835Z,1.25
2022-11-29T16:23:59.081Z,0.82
2022-11-29T16:26:30.372Z,1.10
2022-11-29T16:28:58.360Z,0.95
2022-11-29T16:31:34.182Z,1.17
2022-11-29T16:34:08.992Z,1.20
2022-11-29T16:36:36.958Z,1.25
2022-11-29T16:39:08.908Z,1.35
2022-11-29T16:41:39.009Z,1.20
2022-11-29T16:44:27.752Z,1.30
2022-11-29T16:47:12.191Z,1.20
2022-11-29T16:49:39.892Z,1.00
2022-11-29T16:52:24.815Z,0.98
2022-11-29T16:54:53.999Z,1.40
2022-11-29T16:57:22.464Z,1.45
2022-11-29T16:59:50.465Z,1.50
2022-11-29T17:02:18.550Z,1.23
2022-11-29T17:04:46.567Z,1.00
2022-11-29T17:07:18.107Z,1.45
2022-11-29T17:09:45.969Z,1.23
2022-11-29T17:12:15.519Z,1.58
2022-11-29T17:14:43.872Z,1.17
2022-11-29T17:17:15.131Z,1.13
2022-11-29T17:19:42.866Z,1.10
2022-11-29T17:22:10.637Z,1.38
2022-11-29T17:24:42.323Z,1.38
2022-11-29T17:27:15.536Z,1.50
2022-11-29T17:29:43.331Z,1.38
2022-11-29T17:32:11.054Z,1.50
2022-11-29T17:34:38.926Z,0.80
2022-11-29T17:37:06.612Z,1.27
2022-11-29T17:39:34.492Z,1.30
2022-11-29T17:42:02.215Z,1.85
2022-11-29T17:44:33.913Z,1.83
2022-11-29T17:47:01.896Z,1.85
2022-11-29T17:49:29.720Z,3.10
2022-11-29T17:51:57.608Z,4.63
2022-11-29T17:54:25.697Z,2.92
2022-11-29T17:56:53.600Z,2.85
2022-11-29T17:59:21.287Z,2.60
2022-11-29T18:01:50.488Z,2.88
2022-11-29T18:04:18.462Z,10.85
2022-11-29T18:06:49.808Z,11.20
2022-11-29T18:09:18.651Z,8.18
2022-11-29T18:11:49.406Z,5.53
2022-11-29T18:14:20.347Z,5.53
2022-11-29T18:16:48.292Z,4.65
2022-11-29T18:19:19.333Z,4.78
2022-11-29T18:21:47.877Z,4.68
2022-11-29T18:24:16.243Z,4.55
2022-11-29T18:26:44.560Z,3.83
2022-11-29T18:29:12.371Z,3.50
2022-11-29T18:31:42.377Z,3.42
2022-11-29T18:34:12.890Z,4.43
2022-11-29T18:36:44.012Z,2.70
2022-11-29T18:39:14.907Z,4.10
2022-11-29T18:41:43.751Z,3.75
2022-11-29T18:44:13.713Z,4.05
2022-11-29T18:46:43.840Z,3.75
2022-11-29T18:49:13.189Z,4.53
2022-11-29T18:51:44.718Z,5.50
2022-11-29T18:54:13.823Z,9.48
2022-11-29T18:56:42.330Z,9.38
2022-11-29T18:59:11.239Z,7.32
2022-11-29T19:01:42.430Z,10.02
2022-11-29T19:04:12.491Z,7.93
2022-11-29T19:06:40.737Z,8.05
2022-11-29T19:09:13.272Z,9.55
2022-11-29T19:11:41.218Z,8.80
2022-11-29T19:14:12.377Z,9.73
2022-11-29T19:16:42.439Z,8.73
2022-11-29T19:19:10.932Z,7.57
2022-11-29T19:21:40.126Z,8.52
2022-11-29T19:24:14.837Z,7.90
2022-11-29T19:26:44.299Z,9.77
2022-11-29T19:29:12.676Z,8.10
2022-11-29T19:31:40.515Z,8.05
2022-11-29T19:34:08.268Z,6.65
2022-11-29T19:36:37.296Z,6.15
2022-11-29T19:39:05.660Z,6.15
2022-11-29T19:41:36.528Z,8.00
2022-11-29T19:44:06.623Z,9.20
2022-11-29T19:46:36.520Z,8.45
2022-11-29T19:49:05.663Z,7.70
2022-11-29T19:51:33.894Z,6.78
2022-11-29T19:54:03.308Z,8.25
2022-11-29T19:56:32.312Z,7.20
2022-11-29T19:59:01.508Z,6.70
2022-11-29T20:01:39.358Z,6.95
2022-11-29T20:04:09.561Z,7.07
2022-11-29T20:06:37.436Z,7.80
2022-11-29T20:09:06.354Z,6.90
2022-11-29T20:11:34.149Z,6.20
2022-11-29T20:14:05.339Z,5.80
2022-11-29T20:16:33.969Z,9.07
2022-11-29T20:19:02.100Z,7.93
2022-11-29T20:21:32.224Z,8.30
2022-11-29T20:24:02.204Z,7.90
2022-11-29T20:26:31.826Z,8.35
2022-11-29T20:28:59.856Z,7.20
2022-11-29T20:31:29.537Z,6.72
2022-11-29T20:33:58.291Z,5.95
2022-11-29T20:36:40.882Z,7.45
2022-11-29T20:39:19.134Z,7.47
2022-11-29T20:41:57.826Z,6.28
2022-11-29T20:44:37.588Z,6.60
2022-11-29T20:47:15.262Z,5.57
2022-11-29T20:49:43.519Z,6.35
2022-11-29T20:52:18.305Z,4.78
2022-11-29T20:54:46.161Z,6.35
2022-11-29T20:57:14.069Z,5.20
2022-11-29T20:59:41.808Z,5.47
2022-11-29T21:02:10.887Z,4.97
2022-11-29T21:04:38.608Z,4.30
2022-11-29T21:07:06.381Z,4.40
2022-11-29T21:09:34.104Z,5.35
2022-11-29T21:12:02.465Z,5.65
2022-11-29T21:14:30.977Z,7.57
2022-11-29T21:16:59.247Z,5.28
2022-11-29T21:19:29.541Z,5.80
2022-11-29T21:22:06.363Z,7.10
2022-11-29T21:24:45.986Z,5.10
2022-11-29T21:27:18.650Z,5.95
2022-11-29T21:29:47.036Z,6.25
2022-11-29T21:32:22.180Z,7.57
2022-11-29T21:34:51.440Z,8.38
2022-11-29T21:37:21.675Z,6.10
2022-11-29T21:39:52.202Z,6.45
2022-11-29T21:42:20.081Z,5.68
2022-11-29T21:44:48.213Z,5.70
2022-11-29T21:47:16.340Z,5.57
2022-11-29T21:49:44.036Z,5.07
2022-11-29T21:52:16.507Z,5.60
2022-11-29T21:54:48.952Z,5.95
2022-11-29T21:57:16.873Z,6.03
2022-11-29T21:59:44.582Z,5.82
2022-11-29T22:02:12.495Z,6.68
2022-11-29T22:04:40.405Z,6.60
2022-11-29T22:07:08.136Z,5.72
2022-11-29T22:09:37.369Z,5.75
2022-11-29T22:12:25.762Z,7.18
2022-11-29T22:14:53.068Z,6.50
2022-11-29T22:17:20.851Z,10.07
2022-11-29T22:19:48.668Z,8.50
2022-11-29T22:22:16.483Z,10.48
2022-11-29T22:24:45.936Z,9.05
2022-11-29T22:27:13.810Z,8.98
2022-11-29T22:29:41.522Z,13.73
2022-11-29T22:32:09.278Z,13.52
2022-11-29T22:34:37.019Z,12.63
2022-11-29T22:37:04.707Z,13.57
2022-11-29T22:39:32.531Z,11.52
2022-11-29T22:42:01.600Z,12.25
2022-11-29T22:44:30.114Z,12.85
2022-11-29T22:46:58.052Z,10.95
2022-11-29T22:49:26.032Z,11.57
2022-11-29T22:51:54.931Z,12.57
2022-11-29T22:54:22.757Z,14.85
2022-11-29T22:56:50.454Z,11.45
2022-11-29T22:59:19.531Z,10.38
2022-11-29T23:01:47.327Z,16.85
2022-11-29T23:04:15.657Z,13.38
2022-11-29T23:06:44.738Z,14.23
2022-11-29T23:09:15.956Z,9.65
2022-11-29T23:11:44.299Z,8.70
2022-11-29T23:14:12.556Z,8.15
2022-11-29T23:16:41.885Z,9.02
2022-11-29T23:19:10.340Z,11.77
2022-11-29T23:21:40.001Z,9.70
2022-11-29T23:24:08.640Z,7.60
2022-11-29T23:26:40.114Z,9.63
2022-11-29T23:29:10.037Z,10.85
2022-11-29T23:31:38.163Z,8.13
2022-11-29T23:34:07.675Z,8.75
2022-11-29T23:36:36.486Z,7.57
2022-11-29T23:39:04.256Z,7.13
2022-11-29T23:41:32.007Z,8.85
2022-11-29T23:43:59.954Z,7.07
2022-11-29T23:46:27.659Z,6.30
2022-11-29T23:48:55.572Z,8.60
2022-11-29T23:51:24.729Z,8.27
2022-11-29T23:53:53.039Z,7.70
2022-11-29T23:56:22.010Z,8.02
2022-11-29T23:58:50.279Z,7.88
